sensor_id;sensor_type;location;lat;lon;timestamp;temperature;humidity
22544;DHT22;11438;52.044;8.716;2023-06-24T00:01:58;20.30;95.70
22544;DHT22;11438;52.044;8.716;2023-06-24T00:04:23;20.30;95.80
22544;DHT22;11438;52.044;8.716;2023-06-24T00:06:49;20.30;96.00
22544;DHT22;11438;52.044;8.716;2023-06-24T00:09:17;20.20;95.80
22544;DHT22;11438;52.044;8.716;2023-06-24T00:11:43;20.20;95.70
22544;DHT22;11438;52.044;8.716;2023-06-24T00:14:08;20.20;95.80
22544;DHT22;11438;52.044;8.716;2023-06-24T00:16:34;20.10;95.80
22544;DHT22;11438;52.044;8.716;2023-06-24T00:19:01;20.10;95.80
22544;DHT22;11438;52.044;8.716;2023-06-24T00:21:27;20.10;95.80
22544;DHT22;11438;52.044;8.716;2023-06-24T00:24:00;20.10;95.80
22544;DHT22;11438;52.044;8.716;2023-06-24T00:26:30;20.00;95.90
22544;DHT22;11438;52.044;8.716;2023-06-24T00:28:55;20.00;96.00
22544;DHT22;11438;52.044;8.716;2023-06-24T00:31:21;20.00;95.90
22544;DHT22;11438;52.044;8.716;2023-06-24T00:33:47;20.00;95.90
22544;DHT22;11438;52.044;8.716;2023-06-24T00:36:12;19.90;95.90
22544;DHT22;11438;52.044;8.716;2023-06-24T00:38:38;19.90;96.00
22544;DHT22;11438;52.044;8.716;2023-06-24T00:41:04;19.90;96.00
22544;DHT22;11438;52.044;8.716;2023-06-24T00:43:31;19.80;96.20
22544;DHT22;11438;52.044;8.716;2023-06-24T00:45:57;19.80;96.20
22544;DHT22;11438;52.044;8.716;2023-06-24T00:48:23;19.80;96.20
22544;DHT22;11438;52.044;8.716;2023-06-24T00:50:49;19.80;96.30
22544;DHT22;11438;52.044;8.716;2023-06-24T00:53:18;19.70;96.30
22544;DHT22;11438;52.044;8.716;2023-06-24T00:55:45;19.70;96.30
22544;DHT22;11438;52.044;8.716;2023-06-24T00:58:12;19.70;96.30
22544;DHT22;11438;52.044;8.716;2023-06-24T01:00:42;19.70;96.30
22544;DHT22;11438;52.044;8.716;2023-06-24T01:03:08;19.60;96.30
22544;DHT22;11438;52.044;8.716;2023-06-24T01:05:34;19.60;96.30
22544;DHT22;11438;52.044;8.716;2023-06-24T01:08:01;19.60;96.30
22544;DHT22;11438;52.044;8.716;2023-06-24T01:10:27;19.50;96.30
22544;DHT22;11438;52.044;8.716;2023-06-24T01:12:53;19.50;96.30
22544;DHT22;11438;52.044;8.716;2023-06-24T01:15:19;19.50;96.30
22544;DHT22;11438;52.044;8.716;2023-06-24T01:20:31;19.40;96.60
22544;DHT22;11438;52.044;8.716;2023-06-24T01:23:34;19.40;96.60
22544;DHT22;11438;52.044;8.716;2023-06-24T01:26:32;19.40;96.70
22544;DHT22;11438;52.044;8.716;2023-06-24T01:36:55;19.20;96.50
22544;DHT22;11438;52.044;8.716;2023-06-24T01:39:24;19.20;96.60
22544;DHT22;11438;52.044;8.716;2023-06-24T01:41:59;19.20;96.60
22544;DHT22;11438;52.044;8.716;2023-06-24T01:44:27;19.10;96.70
22544;DHT22;11438;52.044;8.716;2023-06-24T01:46:55;19.10;96.70
22544;DHT22;11438;52.044;8.716;2023-06-24T01:49:23;19.10;96.80
22544;DHT22;11438;52.044;8.716;2023-06-24T01:51:52;19.10;96.80
22544;DHT22;11438;52.044;8.716;2023-06-24T01:54:20;19.00;96.90
22544;DHT22;11438;52.044;8.716;2023-06-24T01:56:48;19.00;97.00
22544;DHT22;11438;52.044;8.716;2023-06-24T01:59:16;19.00;97.10
22544;DHT22;11438;52.044;8.716;2023-06-24T02:01:43;19.00;97.10
22544;DHT22;11438;52.044;8.716;2023-06-24T02:04:10;19.00;97.00
22544;DHT22;11438;52.044;8.716;2023-06-24T02:06:38;18.90;97.10
22544;DHT22;11438;52.044;8.716;2023-06-24T02:09:05;18.90;97.30
22544;DHT22;11438;52.044;8.716;2023-06-24T02:11:33;18.90;97.20
22544;DHT22;11438;52.044;8.716;2023-06-24T02:14:01;18.90;97.20
22544;DHT22;11438;52.044;8.716;2023-06-24T02:16:27;18.80;97.50
22544;DHT22;11438;52.044;8.716;2023-06-24T02:18:55;18.80;97.20
22544;DHT22;11438;52.044;8.716;2023-06-24T02:21:23;18.80;97.30
22544;DHT22;11438;52.044;8.716;2023-06-24T02:23:49;18.80;97.30
22544;DHT22;11438;52.044;8.716;2023-06-24T02:26:15;18.70;97.20
22544;DHT22;11438;52.044;8.716;2023-06-24T02:28:41;18.70;97.20
22544;DHT22;11438;52.044;8.716;2023-06-24T02:31:08;18.70;97.30
22544;DHT22;11438;52.044;8.716;2023-06-24T02:33:34;18.70;97.50
22544;DHT22;11438;52.044;8.716;2023-06-24T02:36:00;18.70;97.40
22544;DHT22;11438;52.044;8.716;2023-06-24T02:38:25;18.60;97.50
22544;DHT22;11438;52.044;8.716;2023-06-24T02:40:51;18.60;97.60
22544;DHT22;11438;52.044;8.716;2023-06-24T02:43:17;18.60;97.60
22544;DHT22;11438;52.044;8.716;2023-06-24T02:45:43;18.60;97.60
22544;DHT22;11438;52.044;8.716;2023-06-24T02:48:10;18.60;97.60
22544;DHT22;11438;52.044;8.716;2023-06-24T02:50:37;18.50;97.70
22544;DHT22;11438;52.044;8.716;2023-06-24T02:53:04;18.60;97.80
22544;DHT22;11438;52.044;8.716;2023-06-24T02:55:30;18.50;97.70
22544;DHT22;11438;52.044;8.716;2023-06-24T02:57:57;18.50;97.70
22544;DHT22;11438;52.044;8.716;2023-06-24T03:00:23;18.50;97.70
22544;DHT22;11438;52.044;8.716;2023-06-24T03:02:50;18.40;97.80
22544;DHT22;11438;52.044;8.716;2023-06-24T03:05:16;18.40;97.70
22544;DHT22;11438;52.044;8.716;2023-06-24T03:07:42;18.40;97.90
22544;DHT22;11438;52.044;8.716;2023-06-24T03:10:08;18.40;98.00
22544;DHT22;11438;52.044;8.716;2023-06-24T03:12:34;18.40;97.90
22544;DHT22;11438;52.044;8.716;2023-06-24T03:14:59;18.30;97.80
22544;DHT22;11438;52.044;8.716;2023-06-24T03:17:26;18.30;97.90
22544;DHT22;11438;52.044;8.716;2023-06-24T03:19:52;18.30;97.90
22544;DHT22;11438;52.044;8.716;2023-06-24T03:22:17;18.30;97.90
22544;DHT22;11438;52.044;8.716;2023-06-24T03:24:43;18.30;97.90
22544;DHT22;11438;52.044;8.716;2023-06-24T03:27:09;18.20;98.00
22544;DHT22;11438;52.044;8.716;2023-06-24T03:29:34;18.20;98.00
22544;DHT22;11438;52.044;8.716;2023-06-24T03:32:00;18.20;98.00
22544;DHT22;11438;52.044;8.716;2023-06-24T03:34:25;18.20;98.00
22544;DHT22;11438;52.044;8.716;2023-06-24T03:36:53;18.20;98.40
22544;DHT22;11438;52.044;8.716;2023-06-24T03:39:20;18.20;98.10
22544;DHT22;11438;52.044;8.716;2023-06-24T03:41:45;18.20;98.10
22544;DHT22;11438;52.044;8.716;2023-06-24T03:44:11;18.20;98.10
22544;DHT22;11438;52.044;8.716;2023-06-24T03:46:37;18.20;98.20
22544;DHT22;11438;52.044;8.716;2023-06-24T03:49:02;18.20;98.20
22544;DHT22;11438;52.044;8.716;2023-06-24T03:51:28;18.20;98.20
22544;DHT22;11438;52.044;8.716;2023-06-24T03:53:53;18.20;98.30
22544;DHT22;11438;52.044;8.716;2023-06-24T03:56:19;18.20;98.40
22544;DHT22;11438;52.044;8.716;2023-06-24T03:58:44;18.20;98.30
22544;DHT22;11438;52.044;8.716;2023-06-24T04:01:10;18.20;98.40
22544;DHT22;11438;52.044;8.716;2023-06-24T04:03:36;18.20;98.60
22544;DHT22;11438;52.044;8.716;2023-06-24T04:06:01;18.20;98.80
22544;DHT22;11438;52.044;8.716;2023-06-24T04:08:27;18.20;98.90
22544;DHT22;11438;52.044;8.716;2023-06-24T04:10:58;18.20;98.80
22544;DHT22;11438;52.044;8.716;2023-06-24T04:13:25;18.20;98.80
22544;DHT22;11438;52.044;8.716;2023-06-24T04:15:51;18.20;98.80
22544;DHT22;11438;52.044;8.716;2023-06-24T04:18:17;18.30;99.00
22544;DHT22;11438;52.044;8.716;2023-06-24T04:20:42;18.30;99.00
22544;DHT22;11438;52.044;8.716;2023-06-24T04:23:08;18.30;99.00
22544;DHT22;11438;52.044;8.716;2023-06-24T04:25:36;18.30;99.20
22544;DHT22;11438;52.044;8.716;2023-06-24T04:28:02;18.30;99.10
22544;DHT22;11438;52.044;8.716;2023-06-24T04:30:28;18.30;99.10
22544;DHT22;11438;52.044;8.716;2023-06-24T04:32:53;18.30;99.00
22544;DHT22;11438;52.044;8.716;2023-06-24T04:35:19;18.40;99.00
22544;DHT22;11438;52.044;8.716;2023-06-24T04:37:44;18.40;99.10
22544;DHT22;11438;52.044;8.716;2023-06-24T04:40:10;18.40;99.30
22544;DHT22;11438;52.044;8.716;2023-06-24T04:42:36;18.40;99.20
22544;DHT22;11438;52.044;8.716;2023-06-24T04:45:01;18.40;99.30
22544;DHT22;11438;52.044;8.716;2023-06-24T04:47:30;18.50;99.40
22544;DHT22;11438;52.044;8.716;2023-06-24T04:49:56;18.50;99.50
22544;DHT22;11438;52.044;8.716;2023-06-24T04:52:23;18.50;99.50
22544;DHT22;11438;52.044;8.716;2023-06-24T04:54:48;18.50;99.50
22544;DHT22;11438;52.044;8.716;2023-06-24T04:57:28;18.60;99.40
22544;DHT22;11438;52.044;8.716;2023-06-24T04:59:54;18.60;99.50
22544;DHT22;11438;52.044;8.716;2023-06-24T05:02:20;18.70;99.60
22544;DHT22;11438;52.044;8.716;2023-06-24T05:04:45;18.70;99.80
22544;DHT22;11438;52.044;8.716;2023-06-24T05:07:11;18.70;99.80
22544;DHT22;11438;52.044;8.716;2023-06-24T05:09:37;18.70;99.70
22544;DHT22;11438;52.044;8.716;2023-06-24T05:12:07;18.80;99.80
22544;DHT22;11438;52.044;8.716;2023-06-24T05:14:36;18.80;99.90
22544;DHT22;11438;52.044;8.716;2023-06-24T05:17:02;18.90;99.90
22544;DHT22;11438;52.044;8.716;2023-06-24T05:19:28;18.90;99.90
22544;DHT22;11438;52.044;8.716;2023-06-24T05:21:53;18.90;99.90
22544;DHT22;11438;52.044;8.716;2023-06-24T05:24:19;19.00;99.90
22544;DHT22;11438;52.044;8.716;2023-06-24T05:26:48;19.00;99.90
22544;DHT22;11438;52.044;8.716;2023-06-24T05:29:13;19.10;99.90
22544;DHT22;11438;52.044;8.716;2023-06-24T05:31:40;19.10;99.90
22544;DHT22;11438;52.044;8.716;2023-06-24T05:34:06;19.10;99.80
22544;DHT22;11438;52.044;8.716;2023-06-24T05:36:31;19.20;99.90
22544;DHT22;11438;52.044;8.716;2023-06-24T05:38:57;19.30;99.90
22544;DHT22;11438;52.044;8.716;2023-06-24T05:41:22;19.30;99.80
22544;DHT22;11438;52.044;8.716;2023-06-24T05:43:48;19.30;99.90
22544;DHT22;11438;52.044;8.716;2023-06-24T05:46:14;19.40;99.90
22544;DHT22;11438;52.044;8.716;2023-06-24T05:48:39;19.40;99.90
22544;DHT22;11438;52.044;8.716;2023-06-24T05:51:05;19.50;99.90
22544;DHT22;11438;52.044;8.716;2023-06-24T05:53:31;19.60;99.90
22544;DHT22;11438;52.044;8.716;2023-06-24T05:55:56;19.60;99.90
22544;DHT22;11438;52.044;8.716;2023-06-24T05:58:21;19.70;99.90
22544;DHT22;11438;52.044;8.716;2023-06-24T06:00:47;19.70;99.90
22544;DHT22;11438;52.044;8.716;2023-06-24T06:03:13;19.80;99.90
22544;DHT22;11438;52.044;8.716;2023-06-24T06:05:38;19.80;99.90
22544;DHT22;11438;52.044;8.716;2023-06-24T06:08:04;19.90;99.90
22544;DHT22;11438;52.044;8.716;2023-06-24T06:10:29;19.90;99.90
22544;DHT22;11438;52.044;8.716;2023-06-24T06:12:55;20.00;99.90
22544;DHT22;11438;52.044;8.716;2023-06-24T06:15:20;20.10;99.90
22544;DHT22;11438;52.044;8.716;2023-06-24T06:17:46;20.10;99.90
22544;DHT22;11438;52.044;8.716;2023-06-24T06:20:12;20.20;99.90
22544;DHT22;11438;52.044;8.716;2023-06-24T06:22:37;20.30;99.90
22544;DHT22;11438;52.044;8.716;2023-06-24T06:25:06;20.30;99.90
22544;DHT22;11438;52.044;8.716;2023-06-24T06:27:32;20.40;99.90
22544;DHT22;11438;52.044;8.716;2023-06-24T06:29:58;20.50;99.90
22544;DHT22;11438;52.044;8.716;2023-06-24T06:32:23;20.50;99.90
22544;DHT22;11438;52.044;8.716;2023-06-24T06:34:49;20.50;99.90
22544;DHT22;11438;52.044;8.716;2023-06-24T06:37:14;20.60;99.90
22544;DHT22;11438;52.044;8.716;2023-06-24T06:39:40;20.70;99.90
22544;DHT22;11438;52.044;8.716;2023-06-24T06:42:05;20.70;99.90
22544;DHT22;11438;52.044;8.716;2023-06-24T06:44:31;20.80;99.90
22544;DHT22;11438;52.044;8.716;2023-06-24T06:46:56;20.90;99.90
22544;DHT22;11438;52.044;8.716;2023-06-24T06:49:22;20.90;99.90
22544;DHT22;11438;52.044;8.716;2023-06-24T06:51:47;21.00;99.90
22544;DHT22;11438;52.044;8.716;2023-06-24T06:54:13;21.10;99.90
22544;DHT22;11438;52.044;8.716;2023-06-24T06:56:39;21.20;99.90
22544;DHT22;11438;52.044;8.716;2023-06-24T06:59:05;21.20;99.90
22544;DHT22;11438;52.044;8.716;2023-06-24T07:01:30;21.30;99.90
22544;DHT22;11438;52.044;8.716;2023-06-24T07:03:56;21.40;99.90
22544;DHT22;11438;52.044;8.716;2023-06-24T07:06:21;21.50;99.90
22544;DHT22;11438;52.044;8.716;2023-06-24T07:08:47;21.50;99.90
22544;DHT22;11438;52.044;8.716;2023-06-24T07:11:12;21.60;99.90
22544;DHT22;11438;52.044;8.716;2023-06-24T07:13:38;21.70;99.90
22544;DHT22;11438;52.044;8.716;2023-06-24T07:16:03;21.70;99.90
22544;DHT22;11438;52.044;8.716;2023-06-24T07:18:29;21.80;99.90
22544;DHT22;11438;52.044;8.716;2023-06-24T07:20:56;21.90;99.90
22544;DHT22;11438;52.044;8.716;2023-06-24T07:23:22;22.00;99.90
22544;DHT22;11438;52.044;8.716;2023-06-24T07:25:47;22.10;99.90
22544;DHT22;11438;52.044;8.716;2023-06-24T07:28:13;22.20;99.90
22544;DHT22;11438;52.044;8.716;2023-06-24T07:30:40;22.20;99.90
22544;DHT22;11438;52.044;8.716;2023-06-24T07:33:07;22.30;99.90
22544;DHT22;11438;52.044;8.716;2023-06-24T07:35:32;22.40;99.90
22544;DHT22;11438;52.044;8.716;2023-06-24T07:37:58;22.50;99.90
22544;DHT22;11438;52.044;8.716;2023-06-24T07:40:24;22.50;99.80
22544;DHT22;11438;52.044;8.716;2023-06-24T07:42:49;22.60;99.70
22544;DHT22;11438;52.044;8.716;2023-06-24T07:45:15;22.70;99.60
22544;DHT22;11438;52.044;8.716;2023-06-24T07:47:40;22.80;99.70
22544;DHT22;11438;52.044;8.716;2023-06-24T07:50:06;22.80;99.40
22544;DHT22;11438;52.044;8.716;2023-06-24T07:52:32;22.90;99.40
22544;DHT22;11438;52.044;8.716;2023-06-24T07:54:57;23.00;99.60
22544;DHT22;11438;52.044;8.716;2023-06-24T07:57:23;23.00;99.10
22544;DHT22;11438;52.044;8.716;2023-06-24T07:59:48;23.10;99.00
22544;DHT22;11438;52.044;8.716;2023-06-24T08:02:14;23.20;98.90
22544;DHT22;11438;52.044;8.716;2023-06-24T08:04:39;23.30;99.20
22544;DHT22;11438;52.044;8.716;2023-06-24T08:07:05;23.30;99.50
22544;DHT22;11438;52.044;8.716;2023-06-24T08:09:30;23.40;98.30
22544;DHT22;11438;52.044;8.716;2023-06-24T08:11:56;23.50;98.50
22544;DHT22;11438;52.044;8.716;2023-06-24T08:14:21;23.50;98.40
22544;DHT22;11438;52.044;8.716;2023-06-24T08:16:47;23.60;98.30
22544;DHT22;11438;52.044;8.716;2023-06-24T08:19:12;23.70;97.90
22544;DHT22;11438;52.044;8.716;2023-06-24T08:21:38;23.70;97.30
22544;DHT22;11438;52.044;8.716;2023-06-24T08:24:04;23.80;97.00
22544;DHT22;11438;52.044;8.716;2023-06-24T08:26:30;23.90;96.90
22544;DHT22;11438;52.044;8.716;2023-06-24T08:28:56;23.90;97.10
22544;DHT22;11438;52.044;8.716;2023-06-24T08:31:21;24.00;97.70
22544;DHT22;11438;52.044;8.716;2023-06-24T08:33:52;24.00;96.90
22544;DHT22;11438;52.044;8.716;2023-06-24T08:36:18;24.10;97.10
22544;DHT22;11438;52.044;8.716;2023-06-24T08:38:44;24.20;96.80
22544;DHT22;11438;52.044;8.716;2023-06-24T08:41:09;24.20;96.90
22544;DHT22;11438;52.044;8.716;2023-06-24T08:43:35;24.30;96.70
22544;DHT22;11438;52.044;8.716;2023-06-24T08:46:00;24.30;96.60
22544;DHT22;11438;52.044;8.716;2023-06-24T08:48:27;24.40;96.60
22544;DHT22;11438;52.044;8.716;2023-06-24T08:50:56;24.50;96.40
22544;DHT22;11438;52.044;8.716;2023-06-24T08:53:25;24.50;96.10
22544;DHT22;11438;52.044;8.716;2023-06-24T08:55:53;24.60;95.80
22544;DHT22;11438;52.044;8.716;2023-06-24T08:58:19;24.60;96.00
22544;DHT22;11438;52.044;8.716;2023-06-24T09:00:45;24.70;95.80
22544;DHT22;11438;52.044;8.716;2023-06-24T09:03:11;24.70;96.30
22544;DHT22;11438;52.044;8.716;2023-06-24T09:05:37;24.80;96.40
22544;DHT22;11438;52.044;8.716;2023-06-24T09:08:02;24.90;96.40
22544;DHT22;11438;52.044;8.716;2023-06-24T09:10:33;24.90;96.20
22544;DHT22;11438;52.044;8.716;2023-06-24T09:13:06;25.00;96.10
22544;DHT22;11438;52.044;8.716;2023-06-24T09:15:32;25.10;96.30
22544;DHT22;11438;52.044;8.716;2023-06-24T09:17:59;25.10;95.80
22544;DHT22;11438;52.044;8.716;2023-06-24T09:20:28;25.20;95.30
22544;DHT22;11438;52.044;8.716;2023-06-24T09:23:02;25.20;95.20
22544;DHT22;11438;52.044;8.716;2023-06-24T09:25:28;25.30;95.40
22544;DHT22;11438;52.044;8.716;2023-06-24T09:27:54;25.40;95.60
22544;DHT22;11438;52.044;8.716;2023-06-24T09:30:22;25.40;94.40
22544;DHT22;11438;52.044;8.716;2023-06-24T09:32:51;25.50;94.60
22544;DHT22;11438;52.044;8.716;2023-06-24T09:35:22;25.60;95.30
22544;DHT22;11438;52.044;8.716;2023-06-24T09:37:55;25.60;95.60
22544;DHT22;11438;52.044;8.716;2023-06-24T09:40:22;25.70;95.40
22544;DHT22;11438;52.044;8.716;2023-06-24T09:42:55;25.80;94.90
22544;DHT22;11438;52.044;8.716;2023-06-24T09:45:23;25.80;94.10
22544;DHT22;11438;52.044;8.716;2023-06-24T09:47:49;25.90;94.60
22544;DHT22;11438;52.044;8.716;2023-06-24T09:50:15;25.90;93.50
22544;DHT22;11438;52.044;8.716;2023-06-24T09:52:42;26.00;93.10
22544;DHT22;11438;52.044;8.716;2023-06-24T09:55:09;26.00;93.00
22544;DHT22;11438;52.044;8.716;2023-06-24T09:57:35;26.10;93.30
22544;DHT22;11438;52.044;8.716;2023-06-24T10:00:02;26.10;93.10
22544;DHT22;11438;52.044;8.716;2023-06-24T10:02:29;26.20;93.50
22544;DHT22;11438;52.044;8.716;2023-06-24T10:04:56;26.30;92.90
22544;DHT22;11438;52.044;8.716;2023-06-24T10:07:22;26.30;92.90
22544;DHT22;11438;52.044;8.716;2023-06-24T10:09:47;26.30;93.40
22544;DHT22;11438;52.044;8.716;2023-06-24T10:12:14;26.40;92.90
22544;DHT22;11438;52.044;8.716;2023-06-24T10:14:39;26.50;92.60
22544;DHT22;11438;52.044;8.716;2023-06-24T10:17:05;26.60;92.30
22544;DHT22;11438;52.044;8.716;2023-06-24T10:19:40;26.60;92.20
22544;DHT22;11438;52.044;8.716;2023-06-24T10:22:10;26.70;92.40
22544;DHT22;11438;52.044;8.716;2023-06-24T10:24:39;26.80;91.60
22544;DHT22;11438;52.044;8.716;2023-06-24T10:27:09;26.80;91.40
22544;DHT22;11438;52.044;8.716;2023-06-24T10:29:38;26.90;91.70
22544;DHT22;11438;52.044;8.716;2023-06-24T10:32:08;27.00;91.70
22544;DHT22;11438;52.044;8.716;2023-06-24T10:34:38;27.00;90.80
22544;DHT22;11438;52.044;8.716;2023-06-24T10:39:46;27.10;90.60
22544;DHT22;11438;52.044;8.716;2023-06-24T10:42:29;27.10;91.10
22544;DHT22;11438;52.044;8.716;2023-06-24T10:44:57;27.10;91.10
22544;DHT22;11438;52.044;8.716;2023-06-24T10:47:23;27.10;90.90
22544;DHT22;11438;52.044;8.716;2023-06-24T10:49:50;27.10;91.10
22544;DHT22;11438;52.044;8.716;2023-06-24T10:52:18;27.10;90.50
22544;DHT22;11438;52.044;8.716;2023-06-24T10:54:44;27.20;89.70
22544;DHT22;11438;52.044;8.716;2023-06-24T10:57:11;27.20;91.00
22544;DHT22;11438;52.044;8.716;2023-06-24T10:59:47;27.30;90.70
22544;DHT22;11438;52.044;8.716;2023-06-24T11:02:17;27.40;90.40
22544;DHT22;11438;52.044;8.716;2023-06-24T11:04:47;27.40;90.30
22544;DHT22;11438;52.044;8.716;2023-06-24T11:07:13;27.50;91.00
22544;DHT22;11438;52.044;8.716;2023-06-24T11:09:42;27.50;91.50
22544;DHT22;11438;52.044;8.716;2023-06-24T11:12:10;27.60;90.80
22544;DHT22;11438;52.044;8.716;2023-06-24T11:14:38;27.70;90.30
22544;DHT22;11438;52.044;8.716;2023-06-24T11:17:04;27.80;90.10
22544;DHT22;11438;52.044;8.716;2023-06-24T11:19:30;27.80;88.70
22544;DHT22;11438;52.044;8.716;2023-06-24T11:22:02;27.90;88.10
22544;DHT22;11438;52.044;8.716;2023-06-24T11:24:28;28.00;87.80
22544;DHT22;11438;52.044;8.716;2023-06-24T11:26:54;28.10;88.00
22544;DHT22;11438;52.044;8.716;2023-06-24T11:29:20;28.10;88.20
22544;DHT22;11438;52.044;8.716;2023-06-24T11:31:46;28.10;87.10
22544;DHT22;11438;52.044;8.716;2023-06-24T11:34:11;28.10;87.90
22544;DHT22;11438;52.044;8.716;2023-06-24T11:36:37;28.20;88.20
22544;DHT22;11438;52.044;8.716;2023-06-24T11:39:02;28.20;88.20
22544;DHT22;11438;52.044;8.716;2023-06-24T11:41:28;28.20;86.70
22544;DHT22;11438;52.044;8.716;2023-06-24T11:43:54;28.30;86.60
22544;DHT22;11438;52.044;8.716;2023-06-24T11:46:30;28.30;87.10
22544;DHT22;11438;52.044;8.716;2023-06-24T11:51:30;28.40;84.30
22544;DHT22;11438;52.044;8.716;2023-06-24T11:53:59;28.40;86.20
22544;DHT22;11438;52.044;8.716;2023-06-24T11:56:39;28.40;85.70
22544;DHT22;11438;52.044;8.716;2023-06-24T11:59:05;28.50;88.10
22544;DHT22;11438;52.044;8.716;2023-06-24T12:01:34;28.50;87.10
22544;DHT22;11438;52.044;8.716;2023-06-24T12:04:10;28.50;85.10
22544;DHT22;11438;52.044;8.716;2023-06-24T12:06:36;28.50;86.80
22544;DHT22;11438;52.044;8.716;2023-06-24T12:09:02;28.50;85.70
22544;DHT22;11438;52.044;8.716;2023-06-24T12:11:27;28.50;84.30
22544;DHT22;11438;52.044;8.716;2023-06-24T12:13:53;28.60;83.70
22544;DHT22;11438;52.044;8.716;2023-06-24T12:16:18;28.60;83.10
22544;DHT22;11438;52.044;8.716;2023-06-24T12:18:44;28.60;84.90
22544;DHT22;11438;52.044;8.716;2023-06-24T12:21:10;28.70;83.20
22544;DHT22;11438;52.044;8.716;2023-06-24T12:23:35;28.80;84.50
22544;DHT22;11438;52.044;8.716;2023-06-24T12:26:01;28.80;83.80
22544;DHT22;11438;52.044;8.716;2023-06-24T12:28:27;28.90;84.40
22544;DHT22;11438;52.044;8.716;2023-06-24T12:30:53;28.90;83.90
22544;DHT22;11438;52.044;8.716;2023-06-24T12:33:18;29.00;81.60
22544;DHT22;11438;52.044;8.716;2023-06-24T12:35:46;29.00;81.20
22544;DHT22;11438;52.044;8.716;2023-06-24T12:38:11;29.10;80.20
22544;DHT22;11438;52.044;8.716;2023-06-24T12:40:37;29.10;80.80
22544;DHT22;11438;52.044;8.716;2023-06-24T12:43:02;29.10;81.40
22544;DHT22;11438;52.044;8.716;2023-06-24T12:45:29;29.20;79.50
22544;DHT22;11438;52.044;8.716;2023-06-24T12:47:55;29.20;81.10
22544;DHT22;11438;52.044;8.716;2023-06-24T12:50:20;29.20;79.50
22544;DHT22;11438;52.044;8.716;2023-06-24T12:52:46;29.20;78.60
22544;DHT22;11438;52.044;8.716;2023-06-24T12:55:12;29.30;79.30
22544;DHT22;11438;52.044;8.716;2023-06-24T12:57:37;29.30;80.70
22544;DHT22;11438;52.044;8.716;2023-06-24T13:00:04;29.30;80.30
22544;DHT22;11438;52.044;8.716;2023-06-24T13:02:30;29.30;80.70
22544;DHT22;11438;52.044;8.716;2023-06-24T13:04:56;29.30;80.00
22544;DHT22;11438;52.044;8.716;2023-06-24T13:07:21;29.30;79.10
22544;DHT22;11438;52.044;8.716;2023-06-24T13:09:47;29.30;79.20
22544;DHT22;11438;52.044;8.716;2023-06-24T13:12:12;29.30;77.20
22544;DHT22;11438;52.044;8.716;2023-06-24T13:14:38;29.30;77.10
22544;DHT22;11438;52.044;8.716;2023-06-24T13:17:03;29.30;77.10
22544;DHT22;11438;52.044;8.716;2023-06-24T13:19:29;29.30;76.60
22544;DHT22;11438;52.044;8.716;2023-06-24T13:21:55;29.30;76.30
22544;DHT22;11438;52.044;8.716;2023-06-24T13:24:20;29.20;77.70
22544;DHT22;11438;52.044;8.716;2023-06-24T13:26:46;29.20;80.00
22544;DHT22;11438;52.044;8.716;2023-06-24T13:29:11;29.20;78.90
22544;DHT22;11438;52.044;8.716;2023-06-24T13:31:37;29.20;76.50
22544;DHT22;11438;52.044;8.716;2023-06-24T13:34:03;29.20;78.00
22544;DHT22;11438;52.044;8.716;2023-06-24T13:36:34;29.30;78.30
22544;DHT22;11438;52.044;8.716;2023-06-24T13:39:07;29.30;76.90
22544;DHT22;11438;52.044;8.716;2023-06-24T13:41:34;29.40;76.70
22544;DHT22;11438;52.044;8.716;2023-06-24T13:44:01;29.40;79.40
22544;DHT22;11438;52.044;8.716;2023-06-24T13:46:28;29.50;76.40
22544;DHT22;11438;52.044;8.716;2023-06-24T13:48:54;29.60;75.60
22544;DHT22;11438;52.044;8.716;2023-06-24T13:51:20;29.60;75.30
22544;DHT22;11438;52.044;8.716;2023-06-24T13:53:48;29.70;77.70
22544;DHT22;11438;52.044;8.716;2023-06-24T13:56:14;29.70;76.50
22544;DHT22;11438;52.044;8.716;2023-06-24T13:58:39;29.70;75.70
22544;DHT22;11438;52.044;8.716;2023-06-24T14:01:05;29.70;76.00
22544;DHT22;11438;52.044;8.716;2023-06-24T14:03:30;29.80;76.00
22544;DHT22;11438;52.044;8.716;2023-06-24T14:05:56;29.80;74.80
22544;DHT22;11438;52.044;8.716;2023-06-24T14:08:22;29.80;75.00
22544;DHT22;11438;52.044;8.716;2023-06-24T14:10:48;29.90;72.90
22544;DHT22;11438;52.044;8.716;2023-06-24T14:13:14;29.90;72.50
22544;DHT22;11438;52.044;8.716;2023-06-24T14:15:40;29.90;71.50
22544;DHT22;11438;52.044;8.716;2023-06-24T14:18:06;29.90;72.70
22544;DHT22;11438;52.044;8.716;2023-06-24T14:20:31;30.00;73.50
22544;DHT22;11438;52.044;8.716;2023-06-24T14:22:57;29.90;73.20
22544;DHT22;11438;52.044;8.716;2023-06-24T14:25:22;30.00;70.80
22544;DHT22;11438;52.044;8.716;2023-06-24T14:27:49;30.00;70.90
22544;DHT22;11438;52.044;8.716;2023-06-24T14:30:15;30.00;73.10
22544;DHT22;11438;52.044;8.716;2023-06-24T14:32:40;30.00;71.30
22544;DHT22;11438;52.044;8.716;2023-06-24T14:35:07;30.00;72.30
22544;DHT22;11438;52.044;8.716;2023-06-24T14:37:32;30.10;72.40
22544;DHT22;11438;52.044;8.716;2023-06-24T14:39:58;30.10;71.00
22544;DHT22;11438;52.044;8.716;2023-06-24T14:42:23;30.10;71.50
22544;DHT22;11438;52.044;8.716;2023-06-24T14:44:49;30.20;71.60
22544;DHT22;11438;52.044;8.716;2023-06-24T14:47:14;30.20;70.60
22544;DHT22;11438;52.044;8.716;2023-06-24T14:49:40;30.30;69.70
22544;DHT22;11438;52.044;8.716;2023-06-24T14:52:05;30.30;71.20
22544;DHT22;11438;52.044;8.716;2023-06-24T14:54:31;30.30;68.90
22544;DHT22;11438;52.044;8.716;2023-06-24T14:56:56;30.30;69.60
22544;DHT22;11438;52.044;8.716;2023-06-24T14:59:22;30.40;68.90
22544;DHT22;11438;52.044;8.716;2023-06-24T15:01:47;30.40;70.90
22544;DHT22;11438;52.044;8.716;2023-06-24T15:04:13;30.40;68.90
22544;DHT22;11438;52.044;8.716;2023-06-24T15:06:38;30.40;69.50
22544;DHT22;11438;52.044;8.716;2023-06-24T15:09:04;30.40;68.60
22544;DHT22;11438;52.044;8.716;2023-06-24T15:11:30;30.50;68.80
22544;DHT22;11438;52.044;8.716;2023-06-24T15:13:55;30.40;68.90
22544;DHT22;11438;52.044;8.716;2023-06-24T15:16:20;30.50;70.70
22544;DHT22;11438;52.044;8.716;2023-06-24T15:18:47;30.50;71.80
22544;DHT22;11438;52.044;8.716;2023-06-24T15:21:14;30.40;72.00
22544;DHT22;11438;52.044;8.716;2023-06-24T15:23:39;30.40;69.80
22544;DHT22;11438;52.044;8.716;2023-06-24T15:26:05;30.40;70.20
22544;DHT22;11438;52.044;8.716;2023-06-24T15:28:30;30.40;71.20
22544;DHT22;11438;52.044;8.716;2023-06-24T15:30:56;30.40;70.60
22544;DHT22;11438;52.044;8.716;2023-06-24T15:33:22;30.40;72.00
22544;DHT22;11438;52.044;8.716;2023-06-24T15:35:47;30.40;73.00
22544;DHT22;11438;52.044;8.716;2023-06-24T15:38:13;30.40;70.90
22544;DHT22;11438;52.044;8.716;2023-06-24T15:40:41;30.40;70.00
22544;DHT22;11438;52.044;8.716;2023-06-24T15:43:08;30.40;70.80